Arctic - Eastern Arctic: Past 24 Hour Conditions

 

Pond Inlet Airport

10:00 AM EDT 23 October 2014
This table is a summary of hourly weather conditions for the past 24 hours.
Date / Time
(EDT)
Wind(knots) Conditions Visibility(km) Pressure(kPa) Air tempC) Relative humidity(%) Dew pointC) Wind Chill
23 October 2014
10:00 W 20 Cloudy 16 100.8 -13 69 -17 -24
9:00 WSW 19 gust 24 Cloudy 16 100.8 -13 72 -17 -25
8:00 WSW 22 gust 29 Cloudy 16 100.8 -14 71 -18 -26
7:00 WSW 24 gust 30 Cloudy 16 100.8 -14 73 -18 -27
6:00 WSW 22 gust 29 Cloudy 16 100.8 -15 73 -19 -27
5:00 W 20 gust 25 Cloudy 16 100.8 -15 70 -20 -27
4:00 W 21 gust 27 Cloudy 16 100.8 -16 71 -20 -28
3:00 W 21 gust 29 Mostly Cloudy 16 100.8 -15 75 -19 -28
2:00 W 29 Haze 10 100.7 -16 71 -20 -30
1:00 W 23 gust 28 Clear 16 100.7 -16 68 -20 -29
0:00 WSW 24 gust 29 Clear 16 100.6 -16 76 -19 -29
22 October 2014
23:00 W 21 gust 28 Partly Cloudy 16 100.7 -16 78 -19 -29
22:00 WNW 25 gust 36 Light Snow 8 100.7 -16 73 -19 -29
21:00 W 27 gust 37 Light Snow 5 100.6 -16 75 -20 -30
20:00 W 27 gust 36 Haze 6 100.6 -16 73 -20 -30
19:00 W 20 gust 25 Partly Cloudy 16 100.7 -16 69 -21 -29
18:00 WSW 14 Cloudy 16 100.6 -16 61 -22 -26
17:00 W 12 Mostly Cloudy 40 100.6 -16 69 -20 -25
16:00 WSW 16 Mostly Cloudy 40 100.6 -15 70 -20 -26
15:00 WSW 12 gust 18 Mostly Cloudy 40 100.6 -14 63 -20 -24
14:00 WSW 12 Mostly Cloudy 40 100.5 -14 64 -19 -23
13:00 WSW 16 Mostly Cloudy 40 100.4 -13 66 -18 -24
12:00 SSW 13 Mostly Cloudy 40 100.4 -13 74 -17 -22
11:00 S 14 Cloudy 40 100.4 -13 74 -17 -23
10:00 WSW 14 Cloudy 16 100.3 -11 67 -16 -21
 
Map of Arctic - Eastern Arctic marine weather areas Baker Lake Airport Chesterfield Inlet Airport Coral Harbour Airport Gjoa Haven Airport Kugaaruk Airport Rankin Inlet Airport Shepherd Bay Airport Whale Cove Airport Arctic Bay Brevoort Island Qikiqtarjuaq Airport Cape Dorset Airport Cape Dyer Cape Hooper Clyde Airport Grise Fiord Airport Hall Beach Airport Igloolik Airport Iqaluit Airport Longstaff Bluff Pangnirtung Airport Pond Inlet Airport Repulse Bay Airport Resolute Airport Resolution Island Rowley Island Airport Taloyoak Airport Wager Bay Akulivik Airport Ivujivik Airport Puvirnituq Airport Kangiqsujuaq Airport Kangirsuk Airport Quaqtaq Airport Tasiujaq Airport Cape Kakkiviak Cape Kiglapait Nain Airport Saglek Cape Mercy Kimmirut Airport Aupaluk Airport Salluit Airport Kangiqsualujjuaq Airport Fort Ross
Legend: buoyBuoy land stationLand Station